Time,TemperatureF,DewpointF,PressureIn,WindDirection,WindDirectionDegrees,WindSpeedMPH,WindSpeedGustMPH,Humidity,HourlyPrecipIn,Conditions,Clouds,dailyrainin,SoftwareType,DateUTC
2013-10-18 00:01:00,33.6,12.4,23.45,South,169,0.0,0.0,41,0.00,,---,0.00,VWS V14.00,2013-10-18 07:01:00,
2013-10-18 00:06:00,33.8,12.1,23.45,SSE,168,0.0,3.6,40,0.00,,---,0.00,VWS V14.00,2013-10-18 07:06:00,
2013-10-18 00:11:00,33.8,12.1,23.45,West,260,0.0,0.0,40,0.00,,---,0.00,VWS V14.00,2013-10-18 07:11:00,
2013-10-18 00:16:00,34.0,12.2,23.45,North,0,0.0,2.7,40,0.00,,---,0.00,VWS V14.00,2013-10-18 07:16:00,
2013-10-18 00:21:00,34.0,12.2,23.45,North,0,0.0,0.0,40,0.00,,---,0.00,VWS V14.00,2013-10-18 07:21:00,
2013-10-18 00:26:00,34.0,12.2,23.45,North,0,0.0,0.0,40,0.00,,---,0.00,VWS V14.00,2013-10-18 07:26:00,
2013-10-18 00:31:00,33.8,12.1,23.45,North,0,0.0,0.0,40,0.00,,---,0.00,VWS V14.00,2013-10-18 07:31:00,
2013-10-18 00:36:00,33.8,12.1,23.45,North,0,0.0,0.0,40,0.00,,---,0.00,VWS V14.00,2013-10-18 07:36:00,
2013-10-18 00:41:00,33.6,12.4,23.45,North,0,0.0,0.0,41,0.00,,---,0.00,VWS V14.00,2013-10-18 07:41:00,
2013-10-18 00:47:00,33.4,12.3,23.45,North,0,0.0,0.0,41,0.00,,---,0.00,VWS V14.00,2013-10-18 07:47:00,
2013-10-18 00:52:00,33.3,12.1,23.45,North,0,0.0,0.0,41,0.00,,---,0.00,VWS V14.00,2013-10-18 07:52:00,
2013-10-18 00:57:00,33.1,12.0,23.45,North,0,0.0,0.0,41,0.00,,---,0.00,VWS V14.00,2013-10-18 07:57:00,
2013-10-18 01:02:00,32.9,11.8,23.45,North,0,0.0,0.0,41,0.00,,---,0.00,VWS V14.00,2013-10-18 08:02:00,
2013-10-18 01:07:00,32.7,11.6,23.45,North,0,0.0,0.0,41,0.00,,---,0.00,VWS V14.00,2013-10-18 08:07:00,
2013-10-18 01:12:00,32.5,11.5,23.45,North,0,0.0,0.0,41,0.00,,---,0.00,VWS V14.00,2013-10-18 08:12:00,
2013-10-18 01:17:00,32.2,11.1,23.45,North,0,0.0,0.0,41,0.00,,---,0.00,VWS V14.00,2013-10-18 08:17:00,
2013-10-18 01:22:00,31.8,10.8,23.45,North,0,0.0,0.0,41,0.00,,---,0.00,VWS V14.00,2013-10-18 08:22:00,
2013-10-18 01:27:00,31.6,10.6,23.45,North,0,0.0,0.0,41,0.00,,---,0.00,VWS V14.00,2013-10-18 08:27:00,
2013-10-18 01:32:00,31.5,10.5,23.45,North,0,0.0,0.0,41,0.00,,---,0.00,VWS V14.00,2013-10-18 08:32:00,
2013-10-18 01:37:00,31.3,10.3,23.45,North,0,0.0,0.0,41,0.00,,---,0.00,VWS V14.00,2013-10-18 08:37:00,
2013-10-18 01:42:00,31.1,10.2,23.45,North,0,0.0,0.0,41,0.00,,---,0.00,VWS V14.00,2013-10-18 08:42:00,
2013-10-18 01:47:00,30.9,10.0,23.45,North,0,0.0,0.0,41,0.00,,---,0.00,VWS V14.00,2013-10-18 08:47:00,
2013-10-18 01:52:00,30.7,9.8,23.45,North,0,0.0,0.0,41,0.00,,---,0.00,VWS V14.00,2013-10-18 08:52:00,
2013-10-18 01:57:00,30.4,9.5,23.45,North,0,0.0,0.0,41,0.00,,---,0.00,VWS V14.00,2013-10-18 08:57:00,
2013-10-18 02:02:00,30.4,9.5,23.45,North,0,0.0,0.0,41,0.00,,---,0.00,VWS V14.00,2013-10-18 09:02:00,
2013-10-18 02:07:00,30.4,9.5,23.45,North,0,0.0,0.0,41,0.00,,---,0.00,VWS V14.00,2013-10-18 09:07:00,
2013-10-18 02:12:00,30.2,9.4,23.45,North,0,0.0,0.0,41,0.00,,---,0.00,VWS V14.00,2013-10-18 09:12:00,
2013-10-18 02:17:00,30.0,9.2,23.45,North,0,0.0,0.0,41,0.00,,---,0.00,VWS V14.00,2013-10-18 09:17:00,
2013-10-18 02:22:00,29.7,8.9,23.45,North,0,0.0,0.0,41,0.00,,---,0.00,VWS V14.00,2013-10-18 09:22:00,
2013-10-18 02:28:00,29.7,8.9,23.45,North,0,0.0,0.0,41,0.00,,---,0.00,VWS V14.00,2013-10-18 09:28:00,
2013-10-18 02:33:00,29.5,8.7,23.45,North,0,0.0,0.0,41,0.00,,---,0.00,VWS V14.00,2013-10-18 09:33:00,
2013-10-18 02:38:00,29.1,8.4,23.45,North,0,0.0,0.0,41,0.00,,---,0.00,VWS V14.00,2013-10-18 09:38:00,
2013-10-18 02:43:00,29.1,8.4,23.45,North,0,0.0,0.0,41,0.00,,---,0.00,VWS V14.00,2013-10-18 09:43:00,
2013-10-18 02:48:00,28.9,8.2,23.45,North,0,0.0,0.0,41,0.00,,---,0.00,VWS V14.00,2013-10-18 09:48:00,
2013-10-18 02:53:00,29.1,8.4,23.45,North,0,0.0,0.0,41,0.00,,---,0.00,VWS V14.00,2013-10-18 09:53:00,
2013-10-18 02:58:00,28.8,8.0,23.45,North,0,0.0,0.0,41,0.00,,---,0.00,VWS V14.00,2013-10-18 09:58:00,
2013-10-18 03:03:00,28.6,7.9,23.45,North,0,0.0,0.0,41,0.00,,---,0.00,VWS V14.00,2013-10-18 10:03:00,
2013-10-18 03:08:00,28.4,7.7,23.45,North,0,0.0,0.0,41,0.00,,---,0.00,VWS V14.00,2013-10-18 10:08:00,
2013-10-18 03:13:00,28.4,7.7,23.45,North,0,0.0,0.0,41,0.00,,---,0.00,VWS V14.00,2013-10-18 10:13:00,
2013-10-18 03:18:00,28.2,7.6,23.45,North,0,0.0,0.0,41,0.00,,---,0.00,VWS V14.00,2013-10-18 10:18:00,
2013-10-18 03:23:00,28.0,7.4,23.45,North,0,0.0,0.0,41,0.00,,---,0.00,VWS V14.00,2013-10-18 10:23:00,
2013-10-18 03:28:00,28.0,7.4,23.45,North,0,0.0,0.0,41,0.00,,---,0.00,VWS V14.00,2013-10-18 10:28:00,
2013-10-18 03:33:00,28.0,7.4,23.45,North,0,0.0,0.0,41,0.00,,---,0.00,VWS V14.00,2013-10-18 10:33:00,
2013-10-18 03:38:00,27.9,7.2,23.45,North,0,0.0,0.0,41,0.00,,---,0.00,VWS V14.00,2013-10-18 10:38:00,
2013-10-18 03:43:00,27.7,7.1,23.45,North,0,0.0,0.0,41,0.00,,---,0.00,VWS V14.00,2013-10-18 10:43:00,
2013-10-18 03:48:00,27.9,7.2,23.45,NW,308,0.0,0.0,41,0.00,,---,0.00,VWS V14.00,2013-10-18 10:48:00,
2013-10-18 03:53:00,27.9,7.2,23.45,NW,308,0.0,0.0,41,0.00,,---,0.00,VWS V14.00,2013-10-18 10:53:00,
2013-10-18 03:58:00,27.7,7.1,23.45,NW,308,0.0,0.0,41,0.00,,---,0.00,VWS V14.00,2013-10-18 10:58:00,
2013-10-18 04:03:00,27.7,7.1,23.45,NW,308,0.0,0.0,41,0.00,,---,0.00,VWS V14.00,2013-10-18 11:03:00,
2013-10-18 04:08:00,27.7,7.1,23.45,NW,308,0.0,0.0,41,0.00,,---,0.00,VWS V14.00,2013-10-18 11:08:00,
2013-10-18 04:13:00,27.7,7.1,23.45,NW,308,0.0,0.0,41,0.00,,---,0.00,VWS V14.00,2013-10-18 11:13:00,
2013-10-18 04:19:00,27.5,6.9,23.48,NW,308,0.0,0.0,41,0.00,,---,0.00,VWS V14.00,2013-10-18 11:19:00,
2013-10-18 04:24:00,27.5,6.9,23.48,NW,308,0.0,0.0,41,0.00,,---,0.00,VWS V14.00,2013-10-18 11:24:00,
2013-10-18 04:29:00,27.1,6.6,23.48,NW,308,0.0,0.0,41,0.00,,---,0.00,VWS V14.00,2013-10-18 11:29:00,
2013-10-18 04:34:00,27.0,6.4,23.45,NW,308,0.0,0.0,41,0.00,,---,0.00,VWS V14.00,2013-10-18 11:34:00,
2013-10-18 04:39:00,27.0,6.4,23.45,NW,308,0.0,0.0,41,0.00,,---,0.00,VWS V14.00,2013-10-18 11:39:00,
2013-10-18 04:44:00,27.0,6.4,23.45,NW,308,0.0,0.0,41,0.00,,---,0.00,VWS V14.00,2013-10-18 11:44:00,
2013-10-18 04:49:00,26.8,6.2,23.45,NW,308,0.0,0.0,41,0.00,,---,0.00,VWS V14.00,2013-10-18 11:49:00,
2013-10-18 04:54:00,26.8,6.2,23.45,NW,308,0.0,0.0,41,0.00,,---,0.00,VWS V14.00,2013-10-18 11:54:00,
2013-10-18 04:59:00,26.4,6.4,23.45,NW,308,0.0,0.0,42,0.00,,---,0.00,VWS V14.00,2013-10-18 11:59:00,
2013-10-18 05:04:00,26.2,6.3,23.45,NW,308,0.0,0.0,42,0.00,,---,0.00,VWS V14.00,2013-10-18 12:04:00,
2013-10-18 05:09:00,26.2,6.3,23.45,NW,308,0.0,0.0,42,0.00,,---,0.00,VWS V14.00,2013-10-18 12:09:00,
2013-10-18 05:14:00,26.1,6.1,23.45,NW,308,0.0,0.0,42,0.00,,---,0.00,VWS V14.00,2013-10-18 12:14:00,
2013-10-18 05:19:00,25.9,6.0,23.48,NW,308,0.0,0.0,42,0.00,,---,0.00,VWS V14.00,2013-10-18 12:19:00,
2013-10-18 05:24:00,25.7,5.8,23.48,NW,308,0.0,0.0,42,0.00,,---,0.00,VWS V14.00,2013-10-18 12:24:00,
2013-10-18 05:29:00,25.7,5.8,23.48,NW,308,0.0,0.0,42,0.00,,---,0.00,VWS V14.00,2013-10-18 12:29:00,
2013-10-18 05:34:00,25.7,5.8,23.48,NW,308,0.0,0.0,42,0.00,,---,0.00,VWS V14.00,2013-10-18 12:34:00,
2013-10-18 05:39:00,25.5,5.6,23.48,NW,308,0.0,0.0,42,0.00,,---,0.00,VWS V14.00,2013-10-18 12:39:00,
2013-10-18 05:44:00,25.2,5.3,23.48,NW,308,0.0,0.0,42,0.00,,---,0.00,VWS V14.00,2013-10-18 12:44:00,
2013-10-18 05:49:00,24.8,5.0,23.48,NW,308,0.0,0.0,42,0.00,,---,0.00,VWS V14.00,2013-10-18 12:49:00,
2013-10-18 05:54:00,24.8,5.0,23.48,NW,308,0.0,0.0,42,0.00,,---,0.00,VWS V14.00,2013-10-18 12:54:00,
2013-10-18 05:59:00,24.6,4.8,23.48,NW,308,0.0,0.0,42,0.00,,---,0.00,VWS V14.00,2013-10-18 12:59:00,
2013-10-18 06:04:00,24.6,4.8,23.48,NW,308,0.0,0.0,42,0.00,,---,0.00,VWS V14.00,2013-10-18 13:04:00,
2013-10-18 06:09:00,24.6,4.8,23.48,NW,308,0.0,0.0,42,0.00,,---,0.00,VWS V14.00,2013-10-18 13:09:00,
2013-10-18 06:14:00,24.4,4.7,23.48,NW,308,0.0,0.0,42,0.00,,---,0.00,VWS V14.00,2013-10-18 13:14:00,
2013-10-18 06:19:00,24.6,4.8,23.48,NW,308,0.0,0.0,42,0.00,,---,0.00,VWS V14.00,2013-10-18 13:19:00,
2013-10-18 06:24:00,24.4,4.7,23.48,NW,308,0.0,0.0,42,0.00,,---,0.00,VWS V14.00,2013-10-18 13:24:00,
2013-10-18 06:29:00,24.1,4.3,23.48,NW,308,0.0,0.0,42,0.00,,---,0.00,VWS V14.00,2013-10-18 13:29:00,
2013-10-18 06:35:00,23.9,4.2,23.48,NW,308,0.0,0.0,42,0.00,,---,0.00,VWS V14.00,2013-10-18 13:35:00,
2013-10-18 06:40:00,23.9,4.2,23.48,NW,308,0.0,0.0,42,0.00,,---,0.00,VWS V14.00,2013-10-18 13:40:00,
2013-10-18 06:45:00,23.9,4.2,23.48,NW,308,0.0,0.0,42,0.00,,---,0.00,VWS V14.00,2013-10-18 13:45:00,
2013-10-18 06:50:00,24.1,4.3,23.48,NW,308,0.0,0.0,42,0.00,,---,0.00,VWS V14.00,2013-10-18 13:50:00,
2013-10-18 06:55:00,24.1,4.3,23.48,NW,308,0.0,0.0,42,0.00,,---,0.00,VWS V14.00,2013-10-18 13:55:00,
2013-10-18 07:00:00,24.3,4.5,23.48,NW,308,0.0,0.0,42,0.00,,---,0.00,VWS V14.00,2013-10-18 14:00:00,
2013-10-18 07:05:00,24.3,4.5,23.48,NW,308,0.0,0.0,42,0.00,,---,0.00,VWS V14.00,2013-10-18 14:05:00,
2013-10-18 07:10:00,24.1,4.3,23.48,NW,308,0.0,0.0,42,0.00,,---,0.00,VWS V14.00,2013-10-18 14:10:00,
2013-10-18 07:15:00,24.4,4.7,23.48,NW,308,0.0,0.0,42,0.00,,---,0.00,VWS V14.00,2013-10-18 14:15:00,
2013-10-18 07:20:00,24.8,5.0,23.48,NW,308,0.0,0.0,42,0.00,,---,0.00,VWS V14.00,2013-10-18 14:20:00,
2013-10-18 07:25:00,25.2,5.3,23.48,NW,308,0.0,0.0,42,0.00,,---,0.00,VWS V14.00,2013-10-18 14:25:00,
2013-10-18 07:30:00,25.5,5.6,23.48,NW,308,0.0,0.0,42,0.00,,---,0.00,VWS V14.00,2013-10-18 14:30:00,
2013-10-18 07:35:00,26.1,6.1,23.48,NW,308,0.0,0.0,42,0.00,,---,0.00,VWS V14.00,2013-10-18 14:35:00,
2013-10-18 07:40:00,26.6,6.6,23.48,North,357,0.0,0.0,42,0.00,,---,0.00,VWS V14.00,2013-10-18 14:40:00,
2013-10-18 07:45:00,27.3,6.7,23.48,North,5,0.0,0.0,41,0.00,,---,0.00,VWS V14.00,2013-10-18 14:45:00,
2013-10-18 07:50:00,28.2,7.6,23.48,NE,49,2.2,2.2,41,0.00,,---,0.00,VWS V14.00,2013-10-18 14:50:00,
2013-10-18 07:55:00,29.5,8.7,23.48,ENE,67,0.0,0.0,41,0.00,,---,0.00,VWS V14.00,2013-10-18 14:55:00,
2013-10-18 08:00:00,31.1,10.2,23.48,ENE,68,0.0,0.0,41,0.00,,---,0.00,VWS V14.00,2013-10-18 15:00:00,
2013-10-18 08:05:00,32.9,11.8,23.51,ESE,112,3.1,3.1,41,0.00,,---,0.00,VWS V14.00,2013-10-18 15:05:00,
2013-10-18 08:10:00,35.1,13.2,23.51,ENE,76,3.1,5.4,40,0.00,,---,0.00,VWS V14.00,2013-10-18 15:10:00,
2013-10-18 08:16:00,37.9,15.2,23.51,East,79,2.2,3.6,39,0.00,,---,0.00,VWS V14.00,2013-10-18 15:16:00,
2013-10-18 08:21:00,40.3,17.3,23.51,ESE,123,4.0,4.0,39,0.00,,---,0.00,VWS V14.00,2013-10-18 15:21:00,
2013-10-18 08:26:00,41.9,18.8,23.51,East,96,0.0,3.1,39,0.00,,---,0.00,VWS V14.00,2013-10-18 15:26:00,
2013-10-18 08:31:00,43.0,19.1,23.51,ESE,107,3.1,4.9,38,0.00,,---,0.00,VWS V14.00,2013-10-18 15:31:00,
2013-10-18 08:36:00,43.9,19.9,23.51,East,98,3.6,3.6,38,0.00,,---,0.00,VWS V14.00,2013-10-18 15:36:00,
2013-10-18 08:41:00,44.8,20.7,23.51,SE,142,6.3,6.3,38,0.00,,---,0.00,VWS V14.00,2013-10-18 15:41:00,
2013-10-18 08:46:00,45.7,21.5,23.51,East,81,5.4,5.8,38,0.00,,---,0.00,VWS V14.00,2013-10-18 15:46:00,
2013-10-18 08:51:00,46.4,21.6,23.51,ESE,108,8.1,10.1,37,0.00,,---,0.00,VWS V14.00,2013-10-18 15:51:00,
2013-10-18 08:56:00,46.9,22.0,23.51,NE,39,8.1,8.1,37,0.00,,---,0.00,VWS V14.00,2013-10-18 15:56:00,
2013-10-18 09:01:00,47.5,22.5,23.51,East,92,4.9,7.2,37,0.00,,---,0.00,VWS V14.00,2013-10-18 16:01:00,
2013-10-18 09:06:00,48.0,23.0,23.51,SE,135,5.4,5.4,37,0.00,,---,0.00,VWS V14.00,2013-10-18 16:06:00,
2013-10-18 09:12:00,48.4,23.3,23.51,ESE,102,3.6,7.6,37,0.00,,---,0.00,VWS V14.00,2013-10-18 16:12:00,
2013-10-18 09:17:00,48.7,23.6,23.51,ENE,78,5.4,6.7,37,0.00,,---,0.00,VWS V14.00,2013-10-18 16:17:00,
2013-10-18 09:22:00,49.3,24.1,23.51,South,191,4.0,4.9,37,0.00,,---,0.00,VWS V14.00,2013-10-18 16:22:00,
2013-10-18 09:27:00,49.5,24.3,23.51,NE,46,2.2,7.2,37,0.00,,---,0.00,VWS V14.00,2013-10-18 16:27:00,
2013-10-18 09:32:00,49.6,24.5,23.51,SSE,164,6.7,10.1,37,0.00,,---,0.00,VWS V14.00,2013-10-18 16:32:00,
2013-10-18 09:37:00,50.2,24.9,23.51,SE,133,6.3,8.7,37,0.00,,---,0.00,VWS V14.00,2013-10-18 16:37:00,
2013-10-18 09:42:00,50.5,25.2,23.51,South,169,4.0,5.4,37,0.00,,---,0.00,VWS V14.00,2013-10-18 16:42:00,
2013-10-18 09:47:00,51.8,25.7,23.51,East,84,6.3,6.3,36,0.00,,---,0.00,VWS V14.00,2013-10-18 16:47:00,
2013-10-18 09:52:00,52.3,26.2,23.51,ENE,74,6.3,6.3,36,0.00,,---,0.00,VWS V14.00,2013-10-18 16:52:00,
2013-10-18 09:57:00,52.2,26.0,23.51,East,88,5.8,5.8,36,0.00,,---,0.00,VWS V14.00,2013-10-18 16:57:00,
2013-10-18 10:02:00,52.7,26.5,23.51,East,79,6.3,8.1,36,0.00,,---,0.00,VWS V14.00,2013-10-18 17:02:00,
2013-10-18 10:07:00,53.1,26.8,23.51,ESE,104,8.1,8.1,36,0.00,,---,0.00,VWS V14.00,2013-10-18 17:07:00,
2013-10-18 10:12:00,53.6,27.3,23.51,East,92,3.6,4.9,36,0.00,,---,0.00,VWS V14.00,2013-10-18 17:12:00,
2013-10-18 10:17:00,54.5,28.1,23.51,SE,139,2.7,6.3,36,0.00,,---,0.00,VWS V14.00,2013-10-18 17:17:00,
2013-10-18 10:22:00,54.9,28.4,23.51,East,92,5.8,8.3,36,0.00,,---,0.00,VWS V14.00,2013-10-18 17:22:00,
2013-10-18 10:27:00,55.9,28.7,23.51,SE,124,4.9,5.4,35,0.00,,---,0.00,VWS V14.00,2013-10-18 17:27:00,
2013-10-18 10:32:00,56.7,29.3,23.51,SE,138,5.8,10.1,35,0.00,,---,0.00,VWS V14.00,2013-10-18 17:32:00,
2013-10-18 10:36:00,56.8,29.5,23.51,ESE,109,3.1,4.0,35,0.00,,---,0.00,VWS V14.00,2013-10-18 17:36:00,
2013-10-18 10:41:00,56.8,29.5,23.51,East,101,10.5,11.0,35,0.00,,---,0.00,VWS V14.00,2013-10-18 17:41:00,
2013-10-18 10:46:00,56.8,29.5,23.51,North,11,2.7,4.0,35,0.00,,---,0.00,VWS V14.00,2013-10-18 17:46:00,
2013-10-18 10:51:00,57.2,29.8,23.51,ESE,119,2.7,2.7,35,0.00,,---,0.00,VWS V14.00,2013-10-18 17:51:00,
2013-10-18 10:56:00,57.9,30.5,23.51,ESE,110,6.7,6.7,35,0.00,,---,0.00,VWS V14.00,2013-10-18 17:56:00,
2013-10-18 11:01:00,57.7,30.3,23.51,ESE,106,3.1,4.0,35,0.00,,---,0.00,VWS V14.00,2013-10-18 18:01:00,
2013-10-18 11:06:00,57.9,30.5,23.51,SSE,149,10.5,10.5,35,0.00,,---,0.00,VWS V14.00,2013-10-18 18:06:00,
2013-10-18 11:11:00,58.1,30.6,23.51,East,100,3.1,9.6,35,0.00,,---,0.00,VWS V14.00,2013-10-18 18:11:00,
2013-10-18 11:16:00,57.9,30.5,23.51,SSE,165,5.4,5.4,35,0.00,,---,0.00,VWS V14.00,2013-10-18 18:16:00,
2013-10-18 11:21:00,59.0,31.4,23.51,SE,145,3.6,7.6,35,0.00,,---,0.00,VWS V14.00,2013-10-18 18:21:00,
2013-10-18 11:26:00,59.7,32.0,23.51,ESE,104,5.4,5.4,35,0.00,,---,0.00,VWS V14.00,2013-10-18 18:26:00,
2013-10-18 11:31:00,60.8,32.3,23.51,East,83,3.1,6.3,34,0.00,,---,0.00,VWS V14.00,2013-10-18 18:31:00,
2013-10-18 11:36:00,60.1,32.4,23.51,SE,145,4.0,4.9,35,0.00,,---,0.00,VWS V14.00,2013-10-18 18:36:00,
2013-10-18 11:41:00,60.3,32.5,23.51,South,176,2.7,4.0,35,0.00,,---,0.00,VWS V14.00,2013-10-18 18:41:00,
2013-10-18 11:46:00,60.6,32.8,23.51,ESE,122,3.6,8.3,35,0.00,,---,0.00,VWS V14.00,2013-10-18 18:46:00,
2013-10-18 11:51:00,60.1,32.4,23.51,North,5,2.7,5.4,35,0.00,,---,0.00,VWS V14.00,2013-10-18 18:51:00,
2013-10-18 11:56:00,60.8,32.3,23.51,SSE,150,2.7,5.8,34,0.00,,---,0.00,VWS V14.00,2013-10-18 18:56:00,
2013-10-18 12:02:00,60.3,32.5,23.51,SSE,163,4.0,4.0,35,0.00,,---,0.00,VWS V14.00,2013-10-18 19:02:00,
2013-10-18 12:07:00,60.6,32.8,23.51,SSE,151,4.5,4.5,35,0.00,,---,0.00,VWS V14.00,2013-10-18 19:07:00,
2013-10-18 12:12:00,61.2,32.6,23.51,SW,227,3.6,5.8,34,0.00,,---,0.00,VWS V14.00,2013-10-18 19:12:00,
2013-10-18 12:17:00,61.5,32.9,23.51,SSE,158,4.0,5.4,34,0.00,,---,0.00,VWS V14.00,2013-10-18 19:17:00,
2013-10-18 12:22:00,62.1,33.4,23.51,ENE,74,2.7,5.8,34,0.00,,---,0.00,VWS V14.00,2013-10-18 19:22:00,
2013-10-18 12:27:00,61.7,33.1,23.51,NNW,339,7.2,7.2,34,0.00,,---,0.00,VWS V14.00,2013-10-18 19:27:00,
2013-10-18 12:32:00,61.7,33.1,23.51,ESE,108,2.7,8.1,34,0.00,,---,0.00,VWS V14.00,2013-10-18 19:32:00,
2013-10-18 12:37:00,61.7,33.1,23.51,SE,139,5.4,8.7,34,0.00,,---,0.00,VWS V14.00,2013-10-18 19:37:00,
2013-10-18 12:42:00,62.8,34.0,23.51,ENE,60,5.4,5.4,34,0.00,,---,0.00,VWS V14.00,2013-10-18 19:42:00,
2013-10-18 12:47:00,63.3,34.5,23.51,SE,138,4.0,5.8,34,0.00,,---,0.00,VWS V14.00,2013-10-18 19:47:00,
2013-10-18 12:52:00,62.2,33.5,23.51,SSE,149,5.8,5.8,34,0.00,,---,0.00,VWS V14.00,2013-10-18 19:52:00,
2013-10-18 12:57:00,62.1,33.4,23.51,SSE,155,3.6,5.4,34,0.00,,---,0.00,VWS V14.00,2013-10-18 19:57:00,
2013-10-18 13:02:00,63.0,34.2,23.51,ESE,106,4.0,4.0,34,0.00,,---,0.00,VWS V14.00,2013-10-18 20:02:00,
2013-10-18 13:07:00,62.1,33.4,23.51,SE,129,2.7,3.1,34,0.00,,---,0.00,VWS V14.00,2013-10-18 20:07:00,
2013-10-18 13:12:00,61.3,32.8,23.51,ESE,118,3.1,4.0,34,0.00,,---,0.00,VWS V14.00,2013-10-18 20:12:00,
2013-10-18 13:17:00,60.6,32.8,23.48,East,80,2.2,2.2,35,0.00,,---,0.00,VWS V14.00,2013-10-18 20:17:00,
2013-10-18 13:22:00,59.5,31.9,23.48,NE,45,4.9,4.9,35,0.00,,---,0.00,VWS V14.00,2013-10-18 20:22:00,
2013-10-18 13:27:00,59.4,31.7,23.48,SE,124,3.1,3.6,35,0.00,,---,0.00,VWS V14.00,2013-10-18 20:27:00,
2013-10-18 13:32:00,59.2,31.6,23.51,East,88,3.6,5.4,35,0.00,,---,0.00,VWS V14.00,2013-10-18 20:32:00,
2013-10-18 13:37:00,58.8,31.2,23.51,ESE,117,3.1,5.4,35,0.00,,---,0.00,VWS V14.00,2013-10-18 20:37:00,
2013-10-18 13:42:00,58.6,31.1,23.51,East,81,2.7,4.0,35,0.00,,---,0.00,VWS V14.00,2013-10-18 20:42:00,
2013-10-18 13:47:00,58.5,30.9,23.48,East,96,3.1,8.3,35,0.00,,---,0.00,VWS V14.00,2013-10-18 20:47:00,
2013-10-18 13:52:00,58.6,31.1,23.48,SE,139,4.0,8.1,35,0.00,,---,0.00,VWS V14.00,2013-10-18 20:52:00,
2013-10-18 13:57:00,58.1,30.6,23.48,SSE,147,4.0,4.0,35,0.00,,---,0.00,VWS V14.00,2013-10-18 20:57:00,
2013-10-18 14:02:00,58.3,30.8,23.48,SE,130,5.4,5.4,35,0.00,,---,0.00,VWS V14.00,2013-10-18 21:02:00,
2013-10-18 14:07:00,58.3,30.8,23.48,East,100,10.5,10.5,35,0.00,,---,0.00,VWS V14.00,2013-10-18 21:07:00,
2013-10-18 14:13:00,58.3,30.8,23.48,SE,132,3.6,3.6,35,0.00,,---,0.00,VWS V14.00,2013-10-18 21:13:00,
2013-10-18 14:18:00,58.3,30.8,23.48,SSE,147,3.1,3.1,35,0.00,,---,0.00,VWS V14.00,2013-10-18 21:18:00,
2013-10-18 14:23:00,58.3,30.8,23.48,ESE,105,4.9,5.4,35,0.00,,---,0.00,VWS V14.00,2013-10-18 21:23:00,
2013-10-18 14:28:00,58.3,30.8,23.48,East,82,3.1,3.6,35,0.00,,---,0.00,VWS V14.00,2013-10-18 21:28:00,
2013-10-18 14:33:00,58.1,30.6,23.48,ESE,102,3.6,7.2,35,0.00,,---,0.00,VWS V14.00,2013-10-18 21:33:00,
2013-10-18 14:38:00,57.9,30.5,23.48,East,94,5.8,7.2,35,0.00,,---,0.00,VWS V14.00,2013-10-18 21:38:00,
2013-10-18 14:43:00,57.9,30.5,23.48,SE,128,3.6,3.6,35,0.00,,---,0.00,VWS V14.00,2013-10-18 21:43:00,
2013-10-18 14:48:00,57.7,30.3,23.51,East,86,3.1,3.6,35,0.00,,---,0.00,VWS V14.00,2013-10-18 21:48:00,
2013-10-18 14:53:00,57.6,30.1,23.51,South,171,4.0,4.0,35,0.00,,---,0.00,VWS V14.00,2013-10-18 21:53:00,
2013-10-18 14:58:00,57.9,30.5,23.51,ESE,116,5.8,5.8,35,0.00,,---,0.00,VWS V14.00,2013-10-18 21:58:00,
2013-10-18 15:03:00,57.7,30.3,23.51,SE,130,2.7,2.7,35,0.00,,---,0.00,VWS V14.00,2013-10-18 22:03:00,
2013-10-18 15:08:00,57.6,30.1,23.51,ESE,105,6.3,6.3,35,0.00,,---,0.00,VWS V14.00,2013-10-18 22:08:00,
2013-10-18 15:13:00,57.6,30.1,23.51,ESE,104,6.3,6.3,35,0.00,,---,0.00,VWS V14.00,2013-10-18 22:13:00,
2013-10-18 15:18:00,57.6,30.1,23.51,East,91,0.0,2.2,35,0.00,,---,0.00,VWS V14.00,2013-10-18 22:18:00,
2013-10-18 15:23:00,57.6,30.1,23.51,North,11,2.7,3.6,35,0.00,,---,0.00,VWS V14.00,2013-10-18 22:23:00,
2013-10-18 15:28:00,57.7,30.3,23.51,SE,145,4.9,5.8,35,0.00,,---,0.00,VWS V14.00,2013-10-18 22:28:00,
2013-10-18 15:33:00,57.7,30.3,23.48,SSE,153,6.3,6.3,35,0.00,,---,0.00,VWS V14.00,2013-10-18 22:33:00,
2013-10-18 15:38:00,57.7,30.3,23.48,ESE,108,5.8,5.8,35,0.00,,---,0.00,VWS V14.00,2013-10-18 22:38:00,
2013-10-18 15:43:00,57.7,30.3,23.48,East,83,5.4,7.6,35,0.00,,---,0.00,VWS V14.00,2013-10-18 22:43:00,
2013-10-18 15:48:00,57.9,30.5,23.51,NE,41,2.7,2.7,35,0.00,,---,0.00,VWS V14.00,2013-10-18 22:48:00,
2013-10-18 15:53:00,58.1,30.6,23.51,SE,142,4.0,8.1,35,0.00,,---,0.00,VWS V14.00,2013-10-18 22:53:00,
2013-10-18 15:58:00,58.1,30.6,23.51,East,101,2.7,5.8,35,0.00,,---,0.00,VWS V14.00,2013-10-18 22:58:00,
2013-10-18 16:04:00,58.3,30.8,23.51,SE,134,5.4,5.8,35,0.00,,---,0.00,VWS V14.00,2013-10-18 23:04:00,
2013-10-18 16:09:00,58.5,30.9,23.51,ENE,77,2.7,6.3,35,0.00,,---,0.00,VWS V14.00,2013-10-18 23:09:00,
2013-10-18 16:14:00,58.8,31.2,23.51,SE,145,6.3,8.1,35,0.00,,---,0.00,VWS V14.00,2013-10-18 23:14:00,
2013-10-18 16:19:00,59.2,31.6,23.51,ENE,66,5.4,8.7,35,0.00,,---,0.00,VWS V14.00,2013-10-18 23:19:00,
2013-10-18 16:24:00,59.0,31.4,23.51,ESE,116,5.4,7.6,35,0.00,,---,0.00,VWS V14.00,2013-10-18 23:24:00,
2013-10-18 16:29:00,59.0,31.4,23.51,ESE,118,8.7,8.7,35,0.00,,---,0.00,VWS V14.00,2013-10-18 23:29:00,
2013-10-18 16:34:00,58.8,31.2,23.51,East,100,4.0,4.0,35,0.00,,---,0.00,VWS V14.00,2013-10-18 23:34:00,
2013-10-18 16:39:00,58.5,30.9,23.51,SE,134,4.0,4.0,35,0.00,,---,0.00,VWS V14.00,2013-10-18 23:39:00,
2013-10-18 16:44:00,57.9,30.5,23.51,East,87,4.0,4.0,35,0.00,,---,0.00,VWS V14.00,2013-10-18 23:44:00,
2013-10-18 16:49:00,57.7,30.3,23.51,NNE,29,0.0,3.1,35,0.00,,---,0.00,VWS V14.00,2013-10-18 23:49:00,
2013-10-18 16:54:00,57.4,30.0,23.51,North,6,4.0,4.0,35,0.00,,---,0.00,VWS V14.00,2013-10-18 23:54:00,
2013-10-18 16:59:00,56.8,29.5,23.51,East,98,0.0,2.2,35,0.00,,---,0.00,VWS V14.00,2013-10-18 23:59:00,
2013-10-18 17:04:00,56.5,29.2,23.51,East,88,2.7,2.7,35,0.00,,---,0.00,VWS V14.00,2013-10-19 00:04:00,
2013-10-18 17:09:00,55.9,28.7,23.51,SE,136,2.7,3.6,35,0.00,,---,0.00,VWS V14.00,2013-10-19 00:09:00,
2013-10-18 17:14:00,55.2,28.8,23.51,SE,124,3.1,3.1,36,0.00,,---,0.00,VWS V14.00,2013-10-19 00:14:00,
2013-10-18 17:19:00,54.7,28.3,23.51,SE,135,3.1,3.1,36,0.00,,---,0.00,VWS V14.00,2013-10-19 00:19:00,
2013-10-18 17:24:00,54.1,27.8,23.51,SE,124,0.0,0.0,36,0.00,,---,0.00,VWS V14.00,2013-10-19 00:24:00,
2013-10-18 17:29:00,53.4,27.1,23.51,SSE,156,3.1,3.6,36,0.00,,---,0.00,VWS V14.00,2013-10-19 00:29:00,
2013-10-18 17:34:00,53.1,26.8,23.51,SSE,150,2.2,2.7,36,0.00,,---,0.00,VWS V14.00,2013-10-19 00:34:00,
2013-10-18 17:39:00,52.5,26.4,23.51,SE,138,2.7,3.1,36,0.00,,---,0.00,VWS V14.00,2013-10-19 00:39:00,
2013-10-18 17:44:00,52.0,25.9,23.51,SE,137,2.2,2.7,36,0.00,,---,0.00,VWS V14.00,2013-10-19 00:44:00,
2013-10-18 17:49:00,51.4,26.0,23.51,SE,142,2.7,3.1,37,0.00,,---,0.00,VWS V14.00,2013-10-19 00:49:00,
2013-10-18 17:54:00,50.9,25.6,23.51,SE,142,0.0,2.7,37,0.00,,---,0.00,VWS V14.00,2013-10-19 00:54:00,
2013-10-18 17:59:00,50.4,25.1,23.51,SE,146,0.0,2.2,37,0.00,,---,0.00,VWS V14.00,2013-10-19 00:59:00,
2013-10-18 18:05:00,49.8,24.6,23.51,SE,146,2.7,3.1,37,0.00,,---,0.00,VWS V14.00,2013-10-19 01:05:00,
2013-10-18 18:10:00,49.5,24.3,23.51,SE,146,2.7,2.7,37,0.00,,---,0.00,VWS V14.00,2013-10-19 01:10:00,
2013-10-18 18:15:00,48.9,23.8,23.51,SSE,150,2.2,2.7,37,0.00,,---,0.00,VWS V14.00,2013-10-19 01:15:00,
2013-10-18 18:20:00,48.6,23.5,23.54,SSE,149,0.0,0.0,37,0.00,,---,0.00,VWS V14.00,2013-10-19 01:20:00,
2013-10-18 18:25:00,48.4,23.3,23.54,SSE,149,0.0,0.0,37,0.00,,---,0.00,VWS V14.00,2013-10-19 01:25:00,
2013-10-18 18:30:00,47.7,22.7,23.54,SSE,149,0.0,0.0,37,0.00,,---,0.00,VWS V14.00,2013-10-19 01:30:00,
2013-10-18 18:35:00,47.1,22.2,23.54,SSE,149,0.0,0.0,37,0.00,,---,0.00,VWS V14.00,2013-10-19 01:35:00,
2013-10-18 18:40:00,46.4,21.6,23.54,SSE,149,0.0,0.0,37,0.00,,---,0.00,VWS V14.00,2013-10-19 01:40:00,
2013-10-18 18:45:00,45.7,21.5,23.54,SSE,149,0.0,0.0,38,0.00,,---,0.00,VWS V14.00,2013-10-19 01:45:00,
2013-10-18 18:50:00,45.0,20.9,23.54,SSE,149,0.0,0.0,38,0.00,,---,0.00,VWS V14.00,2013-10-19 01:50:00,
2013-10-18 18:55:00,44.2,20.3,23.54,SSE,149,0.0,0.0,38,0.00,,---,0.00,VWS V14.00,2013-10-19 01:55:00,
2013-10-18 19:00:00,43.7,19.8,23.54,SSE,149,0.0,0.0,38,0.00,,---,0.00,VWS V14.00,2013-10-19 02:00:00,
2013-10-18 19:05:00,43.0,19.1,23.54,SSE,149,0.0,0.0,38,0.00,,---,0.00,VWS V14.00,2013-10-19 02:05:00,
2013-10-18 19:10:00,42.3,19.1,23.54,SSE,149,0.0,0.0,39,0.00,,---,0.00,VWS V14.00,2013-10-19 02:10:00,
2013-10-18 19:15:00,41.7,18.6,23.54,SSE,149,0.0,0.0,39,0.00,,---,0.00,VWS V14.00,2013-10-19 02:15:00,
2013-10-18 19:20:00,41.4,18.3,23.54,SSE,149,0.0,0.0,39,0.00,,---,0.00,VWS V14.00,2013-10-19 02:20:00,
2013-10-18 19:25:00,41.0,18.0,23.54,SSE,149,0.0,0.0,39,0.00,,---,0.00,VWS V14.00,2013-10-19 02:25:00,
2013-10-18 19:30:00,40.6,17.6,23.54,SSE,149,0.0,0.0,39,0.00,,---,0.00,VWS V14.00,2013-10-19 02:30:00,
2013-10-18 19:35:00,40.1,17.1,23.54,SSE,149,0.0,0.0,39,0.00,,---,0.00,VWS V14.00,2013-10-19 02:35:00,
2013-10-18 19:40:00,39.7,16.8,23.54,SSE,149,0.0,0.0,39,0.00,,---,0.00,VWS V14.00,2013-10-19 02:40:00,
2013-10-18 19:45:00,39.2,16.3,23.54,SSE,149,0.0,0.0,39,0.00,,---,0.00,VWS V14.00,2013-10-19 02:45:00,
2013-10-18 19:50:00,38.8,16.0,23.54,SSE,149,0.0,0.0,39,0.00,,---,0.00,VWS V14.00,2013-10-19 02:50:00,
2013-10-18 19:56:00,38.5,15.7,23.54,SSE,149,0.0,0.0,39,0.00,,---,0.00,VWS V14.00,2013-10-19 02:56:00,
2013-10-18 20:01:00,38.1,15.4,23.54,SSE,149,0.0,0.0,39,0.00,,---,0.00,VWS V14.00,2013-10-19 03:01:00,
2013-10-18 20:06:00,37.9,15.2,23.54,SSE,149,0.0,0.0,39,0.00,,---,0.00,VWS V14.00,2013-10-19 03:06:00,
2013-10-18 20:11:00,37.4,14.7,23.54,SSE,149,0.0,0.0,39,0.00,,---,0.00,VWS V14.00,2013-10-19 03:11:00,
2013-10-18 20:16:00,37.2,15.1,23.54,SSE,149,0.0,0.0,40,0.00,,---,0.00,VWS V14.00,2013-10-19 03:16:00,
2013-10-18 20:21:00,36.7,14.6,23.56,SSE,149,0.0,0.0,40,0.00,,---,0.00,VWS V14.00,2013-10-19 03:21:00,
2013-10-18 20:26:00,36.1,14.2,23.56,SSE,149,0.0,0.0,40,0.00,,---,0.00,VWS V14.00,2013-10-19 03:26:00,
2013-10-18 20:31:00,35.8,13.8,23.56,SSE,149,0.0,0.0,40,0.00,,---,0.00,VWS V14.00,2013-10-19 03:31:00,
2013-10-18 20:36:00,35.8,13.8,23.56,SSE,149,0.0,0.0,40,0.00,,---,0.00,VWS V14.00,2013-10-19 03:36:00,
2013-10-18 20:42:00,35.6,13.7,23.56,SSE,149,0.0,0.0,40,0.00,,---,0.00,VWS V14.00,2013-10-19 03:42:00,
2013-10-18 20:47:00,35.2,13.4,23.56,SSE,149,0.0,0.0,40,0.00,,---,0.00,VWS V14.00,2013-10-19 03:47:00,
2013-10-18 20:52:00,34.9,13.0,23.56,SSE,149,0.0,0.0,40,0.00,,---,0.00,VWS V14.00,2013-10-19 03:52:00,
2013-10-18 20:57:00,34.5,12.7,23.56,SSE,149,0.0,0.0,40,0.00,,---,0.00,VWS V14.00,2013-10-19 03:57:00,
2013-10-18 21:01:00,34.3,12.5,23.56,SSE,149,0.0,0.0,40,0.00,,---,0.00,VWS V14.00,2013-10-19 04:01:00,
2013-10-18 21:02:00,34.2,12.4,23.56,SSE,149,0.0,0.0,40,0.00,,---,0.00,VWS V14.00,2013-10-19 04:02:00,
2013-10-18 21:03:00,34.2,12.4,23.54,SSE,149,0.0,0.0,40,0.00,,---,0.00,VWS V14.00,2013-10-19 04:03:00,
2013-10-18 21:04:00,34.0,12.2,23.54,SSE,149,0.0,0.0,40,0.00,,---,0.00,VWS V14.00,2013-10-19 04:04:00,
2013-10-18 21:09:00,33.8,12.1,23.54,SSE,149,0.0,0.0,40,0.00,,---,0.00,VWS V14.00,2013-10-19 04:09:00,
2013-10-18 21:14:00,33.6,12.4,23.54,SSE,149,0.0,0.0,41,0.00,,---,0.00,VWS V14.00,2013-10-19 04:14:00,
2013-10-18 21:19:00,33.6,12.4,23.56,SSE,149,0.0,0.0,41,0.00,,---,0.00,VWS V14.00,2013-10-19 04:19:00,
2013-10-18 21:24:00,33.3,12.1,23.56,SSE,149,0.0,0.0,41,0.00,,---,0.00,VWS V14.00,2013-10-19 04:24:00,
2013-10-18 21:29:00,32.9,11.8,23.56,SSE,149,0.0,0.0,41,0.00,,---,0.00,VWS V14.00,2013-10-19 04:29:00,
2013-10-18 21:34:00,32.7,11.6,23.56,SSE,149,0.0,0.0,41,0.00,,---,0.00,VWS V14.00,2013-10-19 04:34:00,
2013-10-18 21:39:00,32.5,11.5,23.56,SSE,149,0.0,0.0,41,0.00,,---,0.00,VWS V14.00,2013-10-19 04:39:00,
2013-10-18 21:44:00,32.5,11.5,23.56,SSE,149,0.0,0.0,41,0.00,,---,0.00,VWS V14.00,2013-10-19 04:44:00,
2013-10-18 21:49:00,32.2,11.1,23.56,SSE,149,0.0,0.0,41,0.00,,---,0.00,VWS V14.00,2013-10-19 04:49:00,
2013-10-18 21:54:00,32.0,11.0,23.56,SSE,149,0.0,0.0,41,0.00,,---,0.00,VWS V14.00,2013-10-19 04:54:00,
2013-10-18 21:59:00,31.8,10.8,23.56,SSE,149,0.0,0.0,41,0.00,,---,0.00,VWS V14.00,2013-10-19 04:59:00,
2013-10-18 22:04:00,31.5,10.5,23.56,SSE,149,0.0,0.0,41,0.00,,---,0.00,VWS V14.00,2013-10-19 05:04:00,
2013-10-18 22:09:00,31.1,10.2,23.56,SSE,149,0.0,0.0,41,0.00,,---,0.00,VWS V14.00,2013-10-19 05:09:00,
2013-10-18 22:14:00,30.7,9.8,23.56,SSE,149,0.0,0.0,41,0.00,,---,0.00,VWS V14.00,2013-10-19 05:14:00,
2013-10-18 22:19:00,30.6,9.7,23.56,SSE,149,0.0,0.0,41,0.00,,---,0.00,VWS V14.00,2013-10-19 05:19:00,
2013-10-18 22:24:00,30.6,9.7,23.56,SSE,149,0.0,0.0,41,0.00,,---,0.00,VWS V14.00,2013-10-19 05:24:00,
2013-10-18 22:29:00,30.4,9.5,23.56,SSE,149,0.0,0.0,41,0.00,,---,0.00,VWS V14.00,2013-10-19 05:29:00,
2013-10-18 22:34:00,30.2,9.4,23.56,SSE,149,0.0,0.0,41,0.00,,---,0.00,VWS V14.00,2013-10-19 05:34:00,
2013-10-18 22:39:00,30.0,9.2,23.56,SSE,149,0.0,0.0,41,0.00,,---,0.00,VWS V14.00,2013-10-19 05:39:00,
2013-10-18 22:44:00,30.0,9.2,23.56,SSE,149,0.0,0.0,41,0.00,,---,0.00,VWS V14.00,2013-10-19 05:44:00,
2013-10-18 22:49:00,30.0,9.2,23.56,SSE,149,0.0,0.0,41,0.00,,---,0.00,VWS V14.00,2013-10-19 05:49:00,
2013-10-18 22:54:00,30.0,9.2,23.56,SSE,149,0.0,0.0,41,0.00,,---,0.00,VWS V14.00,2013-10-19 05:54:00,
2013-10-18 23:00:00,29.7,8.9,23.56,SSE,149,0.0,0.0,41,0.00,,---,0.00,VWS V14.00,2013-10-19 06:00:00,
2013-10-18 23:05:00,29.5,8.7,23.56,SSE,149,0.0,0.0,41,0.00,,---,0.00,VWS V14.00,2013-10-19 06:05:00,
2013-10-18 23:10:00,29.3,8.5,23.56,SSE,149,0.0,0.0,41,0.00,,---,0.00,VWS V14.00,2013-10-19 06:10:00,
2013-10-18 23:15:00,28.9,8.2,23.56,SSE,149,0.0,0.0,41,0.00,,---,0.00,VWS V14.00,2013-10-19 06:15:00,
2013-10-18 23:20:00,28.9,8.2,23.56,SSE,149,0.0,0.0,41,0.00,,---,0.00,VWS V14.00,2013-10-19 06:20:00,
2013-10-18 23:25:00,28.6,7.9,23.56,SSE,149,0.0,0.0,41,0.00,,---,0.00,VWS V14.00,2013-10-19 06:25:00,
2013-10-18 23:30:00,28.6,7.9,23.56,SSE,149,0.0,0.0,41,0.00,,---,0.00,VWS V14.00,2013-10-19 06:30:00,
2013-10-18 23:35:00,28.6,7.9,23.56,SSE,149,0.0,0.0,41,0.00,,---,0.00,VWS V14.00,2013-10-19 06:35:00,
2013-10-18 23:40:00,28.6,7.9,23.56,SSE,149,0.0,0.0,41,0.00,,---,0.00,VWS V14.00,2013-10-19 06:40:00,
2013-10-18 23:45:00,28.6,7.9,23.56,SSE,149,0.0,0.0,41,0.00,,---,0.00,VWS V14.00,2013-10-19 06:45:00,
2013-10-18 23:50:00,28.4,7.7,23.56,SSE,149,0.0,0.0,41,0.00,,---,0.00,VWS V14.00,2013-10-19 06:50:00,
2013-10-18 23:55:00,28.0,7.4,23.56,SSE,149,0.0,0.0,41,0.00,,---,0.00,VWS V14.00,2013-10-19 06:55:00,